Time;durP1;ratioP1;P1;durP2;ratioP2;P2;SDS_P1;SDS_P2;PMS_P1;PMS_P2;Temp;Humidity;BMP_temperature;BMP_pressure;BME280_temperature;BME280_humidity;BME280_pressure;Samples;Min_cycle;Max_cycle;Signal;HPM_P1;HPM_P2
2022/11/13 00:02:43;;;;;;;;;;;4.80;99.90;;;;;;4945362;29;19928;-79
2022/11/13 00:05:28;;;;;;;;;;;4.70;99.90;;;;;;4946382;29;20686;-75
2022/11/13 00:08:14;;;;;;;;;;;4.70;99.90;;;;;;4945624;29;19933;-77
2022/11/13 00:11:00;;;;;;;;;;;4.80;99.90;;;;;;4946183;29;19981;-76
2022/11/13 00:13:48;;;;;;;;;;;4.80;99.90;;;;;;4944645;29;19930;-77
2022/11/13 00:16:34;;;;;;;;;;;4.70;99.90;;;;;;4945605;29;19929;-76
2022/11/13 00:19:19;;;;;;;;;;;4.70;99.90;;;;;;4945781;29;19933;-76
2022/11/13 00:22:05;;;;;;;;;;;4.70;99.90;;;;;;4944690;29;19932;-77
2022/11/13 00:24:50;;;;;;;;;;;4.70;99.90;;;;;;4943898;29;19933;-76
2022/11/13 00:27:36;;;;;;;;;;;4.80;99.90;;;;;;4945470;29;19930;-77
2022/11/13 00:30:23;;;;;;;;;;;4.80;99.90;;;;;;4945699;29;19956;-78
2022/11/13 00:33:09;;;;;;;;;;;4.90;99.90;;;;;;4943651;29;20014;-79
2022/11/13 00:35:54;;;;;;;;;;;4.80;99.90;;;;;;4945456;29;20385;-77
2022/11/13 00:38:40;;;;;;;;;;;4.80;99.90;;;;;;4944312;29;19930;-79
2022/11/13 00:41:25;;;;;;;;;;;4.70;99.90;;;;;;4944514;29;20283;-78
2022/11/13 00:44:11;;;;;;;;;;;4.80;99.90;;;;;;4944925;29;20072;-77
2022/11/13 00:46:58;;;;;;;;;;;4.70;99.90;;;;;;4944913;28;20291;-76
2022/11/13 00:49:44;;;;;;;;;;;4.70;99.90;;;;;;4945518;29;19934;-77
2022/11/13 00:52:30;;;;;;;;;;;4.70;99.90;;;;;;4943748;29;19928;-77
2022/11/13 00:55:15;;;;;;;;;;;4.60;99.90;;;;;;4944629;28;20660;-77
2022/11/13 00:58:01;;;;;;;;;;;4.60;99.90;;;;;;4944727;29;19989;-77
2022/11/13 01:00:47;;;;;;;;;;;4.60;99.90;;;;;;4945076;29;19929;-76
2022/11/13 01:03:35;;;;;;;;;;;4.50;99.90;;;;;;4944506;29;19933;-77
2022/11/13 01:06:22;;;;;;;;;;;4.50;99.90;;;;;;4943845;29;19933;-79
2022/11/13 01:09:07;;;;;;;;;;;4.50;99.90;;;;;;4943820;29;19982;-78
2022/11/13 01:11:53;;;;;;;;;;;4.40;99.90;;;;;;4944638;29;20381;-78
2022/11/13 01:14:38;;;;;;;;;;;4.30;99.90;;;;;;4944540;29;19929;-76
2022/11/13 01:17:24;;;;;;;;;;;4.20;99.90;;;;;;4944232;29;20845;-77
2022/11/13 01:20:11;;;;;;;;;;;4.20;99.90;;;;;;4944502;29;19930;-76
2022/11/13 01:22:57;;;;;;;;;;;4.30;99.90;;;;;;4943858;29;20397;-79
2022/11/13 01:25:42;;;;;;;;;;;4.30;99.90;;;;;;4944127;29;20115;-77
2022/11/13 01:28:28;;;;;;;;;;;4.20;99.90;;;;;;4944588;29;20281;-76
2022/11/13 01:31:15;;;;;;;;;;;4.20;99.90;;;;;;4943592;29;20034;-78
2022/11/13 01:34:01;;;;;;;;;;;4.20;99.90;;;;;;4944713;29;19945;-78
2022/11/13 01:36:48;;;;;;;;;;;4.20;99.90;;;;;;4943709;28;20278;-75
2022/11/13 01:39:33;;;;;;;;;;;4.10;99.90;;;;;;4943113;29;19970;-79
2022/11/13 01:42:19;;;;;;;;;;;4.10;99.90;;;;;;4943817;29;19929;-78
2022/11/13 01:45:19;;;;;;;;;;;4.10;99.90;;;;;;4944548;29;19977;-76
2022/11/13 01:48:08;;;;;;;;;;;4.10;99.90;;;;;;4943862;29;20524;-77
2022/11/13 01:50:54;;;;;;;;;;;4.10;99.90;;;;;;4943990;29;19929;-77
2022/11/13 01:53:42;;;;;;;;;;;4.00;99.90;;;;;;4944193;29;19965;-78
2022/11/13 01:56:28;;;;;;;;;;;3.90;99.90;;;;;;4943931;28;19937;-79
2022/11/13 01:59:15;;;;;;;;;;;3.90;99.90;;;;;;4944059;29;19929;-78
2022/11/13 02:02:02;;;;;;;;;;;3.90;99.90;;;;;;4942751;29;19930;-77
2022/11/13 02:04:47;;;;;;;;;;;3.90;99.90;;;;;;4943728;29;19946;-78
2022/11/13 02:07:33;;;;;;;;;;;3.90;99.90;;;;;;4943205;29;19946;-76
2022/11/13 02:10:20;;;;;;;;;;;3.80;99.90;;;;;;4943236;29;20025;-76
2022/11/13 02:13:06;;;;;;;;;;;3.80;99.90;;;;;;4942151;29;19930;-76
2022/11/13 02:15:52;;;;;;;;;;;3.80;99.90;;;;;;4943449;28;20419;-77
2022/11/13 02:18:39;;;;;;;;;;;3.80;99.90;;;;;;4943886;29;19938;-75
2022/11/13 02:21:30;;;;;;;;;;;3.80;99.90;;;;;;4941738;29;19930;-78
2022/11/13 02:24:25;;;;;;;;;;;3.80;99.90;;;;;;4942527;29;20003;-78
2022/11/13 02:27:14;;;;;;;;;;;3.80;99.90;;;;;;4942873;29;20893;-75
2022/11/13 02:30:10;;;;;;;;;;;3.80;99.90;;;;;;4943926;29;19929;-78
2022/11/13 02:32:57;;;;;;;;;;;3.90;99.90;;;;;;4942924;29;20005;-75
2022/11/13 02:35:43;;;;;;;;;;;3.90;99.90;;;;;;4943048;28;19930;-75
2022/11/13 02:38:29;;;;;;;;;;;3.80;99.90;;;;;;4949868;29;19934;-76
2022/11/13 02:41:16;;;;;;;;;;;3.80;99.90;;;;;;4954231;29;19989;-75
2022/11/13 02:44:02;;;;;;;;;;;3.70;99.90;;;;;;4954308;29;19930;-77
2022/11/13 02:46:47;;;;;;;;;;;3.70;99.90;;;;;;4942539;28;20086;-78
2022/11/13 02:49:33;;;;;;;;;;;3.60;99.90;;;;;;4943937;29;20050;-78
2022/11/13 02:52:19;;;;;;;;;;;3.60;99.90;;;;;;4943151;29;20411;-78
2022/11/13 02:55:05;;;;;;;;;;;3.60;99.90;;;;;;4944817;29;19929;-79
2022/11/13 02:57:52;;;;;;;;;;;3.60;99.90;;;;;;4944097;29;19933;-77
2022/11/13 03:00:38;;;;;;;;;;;3.60;99.90;;;;;;4942534;29;19930;-78
2022/11/13 03:03:23;;;;;;;;;;;3.60;99.90;;;;;;4942167;29;20054;-77
2022/11/13 03:06:09;;;;;;;;;;;3.50;99.90;;;;;;4942091;29;19933;-79
2022/11/13 03:08:54;;;;;;;;;;;3.50;99.90;;;;;;4944691;29;19933;-78
2022/11/13 03:11:40;;;;;;;;;;;3.50;99.90;;;;;;4941177;29;19929;-78
2022/11/13 03:14:27;;;;;;;;;;;3.50;99.90;;;;;;4943137;29;19997;-79
2022/11/13 03:17:13;;;;;;;;;;;3.50;99.90;;;;;;4942332;29;19933;-77
2022/11/13 03:19:58;;;;;;;;;;;3.50;99.90;;;;;;4940594;29;19957;-79
2022/11/13 03:22:44;;;;;;;;;;;3.50;99.90;;;;;;4942089;29;19929;-77
2022/11/13 03:25:29;;;;;;;;;;;3.40;99.90;;;;;;4942520;29;19929;-78
2022/11/13 03:28:15;;;;;;;;;;;3.50;99.90;;;;;;4942843;29;20378;-76
2022/11/13 03:31:02;;;;;;;;;;;3.50;99.90;;;;;;4941005;29;19930;-77
2022/11/13 03:33:48;;;;;;;;;;;3.40;99.90;;;;;;4942256;29;19930;-78
2022/11/13 03:36:33;;;;;;;;;;;3.40;99.90;;;;;;4940391;29;19937;-77
2022/11/13 03:39:19;;;;;;;;;;;3.50;99.90;;;;;;4942056;29;19959;-76
2022/11/13 03:42:04;;;;;;;;;;;3.40;99.90;;;;;;4941573;29;19933;-79
2022/11/13 03:44:50;;;;;;;;;;;3.40;99.90;;;;;;4942594;28;19928;-77
2022/11/13 03:47:37;;;;;;;;;;;3.40;99.90;;;;;;4942766;29;20282;-76
2022/11/13 03:50:23;;;;;;;;;;;3.30;99.90;;;;;;4942823;29;19930;-77
2022/11/13 03:53:09;;;;;;;;;;;3.30;99.90;;;;;;4940958;29;19937;-77
2022/11/13 03:55:55;;;;;;;;;;;3.30;99.90;;;;;;4942405;29;19993;-76
2022/11/13 03:58:40;;;;;;;;;;;3.30;99.90;;;;;;4943301;29;20017;-78
2022/11/13 04:01:26;;;;;;;;;;;3.20;99.90;;;;;;4942000;29;19934;-77
2022/11/13 04:04:14;;;;;;;;;;;3.20;99.90;;;;;;4942110;29;20282;-77
2022/11/13 04:07:00;;;;;;;;;;;3.10;99.90;;;;;;4940628;29;20583;-77
2022/11/13 04:09:45;;;;;;;;;;;3.10;99.90;;;;;;4941816;29;19962;-78
2022/11/13 04:12:31;;;;;;;;;;;3.00;99.90;;;;;;4940286;29;19930;-78
2022/11/13 04:15:17;;;;;;;;;;;2.90;99.90;;;;;;4940945;28;20763;-76
2022/11/13 04:18:02;;;;;;;;;;;2.90;99.90;;;;;;4940981;29;20377;-78
2022/11/13 04:20:49;;;;;;;;;;;2.90;99.90;;;;;;4942156;29;19934;-76
2022/11/13 04:23:35;;;;;;;;;;;2.90;99.90;;;;;;4939903;29;20054;-78
2022/11/13 04:26:20;;;;;;;;;;;3.00;99.90;;;;;;4941581;28;20030;-77
2022/11/13 04:29:06;;;;;;;;;;;3.00;99.90;;;;;;4942343;29;19930;-75
2022/11/13 04:31:52;;;;;;;;;;;3.10;99.90;;;;;;4942920;28;19944;-76
2022/11/13 04:34:38;;;;;;;;;;;3.10;99.90;;;;;;4945628;28;19933;-77
2022/11/13 04:37:25;;;;;;;;;;;3.20;99.90;;;;;;4945436;29;19933;-78
2022/11/13 04:40:11;;;;;;;;;;;3.20;99.90;;;;;;4944890;29;19929;-77
2022/11/13 04:42:55;;;;;;;;;;;3.20;99.90;;;;;;4943706;29;19930;-77
2022/11/13 04:45:41;;;;;;;;;;;3.20;99.90;;;;;;4945381;28;20523;-76
2022/11/13 04:48:27;;;;;;;;;;;3.10;99.90;;;;;;4942348;29;20392;-77
2022/11/13 04:51:12;;;;;;;;;;;3.10;99.90;;;;;;4944953;29;19937;-75
2022/11/13 04:53:59;;;;;;;;;;;3.10;99.90;;;;;;4945054;29;20022;-76
2022/11/13 04:56:45;;;;;;;;;;;3.00;99.90;;;;;;4944721;29;19930;-77
2022/11/13 04:59:31;;;;;;;;;;;3.00;99.90;;;;;;4945123;29;19934;-77
2022/11/13 05:02:16;;;;;;;;;;;3.10;99.90;;;;;;4945119;29;20466;-77
2022/11/13 05:05:02;;;;;;;;;;;3.20;99.90;;;;;;4943805;29;19997;-78
2022/11/13 05:07:48;;;;;;;;;;;3.20;99.90;;;;;;4944171;29;19929;-78
2022/11/13 05:10:35;;;;;;;;;;;3.10;99.90;;;;;;4944312;29;20020;-77
2022/11/13 05:13:20;;;;;;;;;;;3.10;99.90;;;;;;4943937;29;20409;-75
2022/11/13 05:16:07;;;;;;;;;;;3.10;99.90;;;;;;4944265;29;19945;-77
2022/11/13 05:18:52;;;;;;;;;;;3.10;99.90;;;;;;4944029;29;20337;-76
2022/11/13 05:21:38;;;;;;;;;;;3.10;99.90;;;;;;4944149;29;20683;-77
2022/11/13 05:24:24;;;;;;;;;;;3.10;99.90;;;;;;4944783;29;20020;-75
2022/11/13 05:27:11;;;;;;;;;;;3.10;99.90;;;;;;4942064;29;19934;-75
2022/11/13 05:29:57;;;;;;;;;;;3.10;99.90;;;;;;4944174;29;20010;-77
2022/11/13 05:32:43;;;;;;;;;;;3.10;99.90;;;;;;4943897;29;20322;-75
2022/11/13 05:35:29;;;;;;;;;;;3.10;99.90;;;;;;4944796;28;19930;-76
2022/11/13 05:38:14;;;;;;;;;;;3.10;99.90;;;;;;4943372;29;20051;-78
2022/11/13 05:41:03;;;;;;;;;;;3.10;99.90;;;;;;4979750;23;19928;-77
2022/11/13 05:43:51;;;;;;;;;;;3.10;99.90;;;;;;4972949;28;20353;-77
2022/11/13 05:46:36;;;;;;;;;;;3.10;99.90;;;;;;4953681;29;20073;-78
2022/11/13 05:49:22;;;;;;;;;;;3.20;99.90;;;;;;4954109;29;19985;-77
2022/11/13 05:52:07;;;;;;;;;;;3.30;99.90;;;;;;4953864;29;20298;-79
2022/11/13 05:54:53;;;;;;;;;;;3.30;99.90;;;;;;4954127;28;19930;-75
2022/11/13 05:57:38;;;;;;;;;;;3.30;99.90;;;;;;4953801;29;19929;-77
2022/11/13 06:00:26;;;;;;;;;;;3.30;99.90;;;;;;4954132;29;20057;-78
2022/11/13 06:03:11;;;;;;;;;;;3.30;99.90;;;;;;4954449;28;19951;-75
2022/11/13 06:05:58;;;;;;;;;;;3.30;99.90;;;;;;4954298;28;19933;-75
2022/11/13 06:08:44;;;;;;;;;;;3.30;99.90;;;;;;4954106;29;20354;-77
2022/11/13 06:11:30;;;;;;;;;;;3.30;99.90;;;;;;4953258;29;19929;-75
2022/11/13 06:14:16;;;;;;;;;;;3.30;99.90;;;;;;4954629;28;20387;-77
2022/11/13 06:17:03;;;;;;;;;;;3.30;99.90;;;;;;4953918;29;19928;-76
2022/11/13 06:19:49;;;;;;;;;;;3.30;99.90;;;;;;4953619;29;19976;-79
2022/11/13 06:22:35;;;;;;;;;;;3.40;99.90;;;;;;4953139;29;20382;-75
2022/11/13 06:25:20;;;;;;;;;;;3.60;99.90;;;;;;4953921;28;20404;-75
2022/11/13 06:28:06;;;;;;;;;;;3.70;99.90;;;;;;4954435;29;19949;-75
2022/11/13 06:30:52;;;;;;;;;;;3.90;99.90;;;;;;4953464;29;19930;-78
2022/11/13 06:33:39;;;;;;;;;;;4.00;99.90;;;;;;4952650;29;20008;-77
2022/11/13 06:36:25;;;;;;;;;;;4.20;99.90;;;;;;4953573;29;20348;-76
2022/11/13 06:39:12;;;;;;;;;;;4.40;99.90;;;;;;4953353;29;20393;-77
2022/11/13 06:41:57;;;;;;;;;;;4.40;99.90;;;;;;4952329;29;20008;-76
2022/11/13 06:44:43;;;;;;;;;;;4.40;99.90;;;;;;4953390;28;19928;-77
2022/11/13 06:47:29;;;;;;;;;;;4.40;99.90;;;;;;4953576;29;19937;-77
2022/11/13 06:50:16;;;;;;;;;;;4.40;99.90;;;;;;4953957;28;19940;-77
2022/11/13 06:53:02;;;;;;;;;;;4.40;99.90;;;;;;4951319;28;19933;-78
2022/11/13 06:55:48;;;;;;;;;;;4.60;99.90;;;;;;4953224;28;19933;-78
2022/11/13 06:58:34;;;;;;;;;;;4.70;99.90;;;;;;4953285;29;20020;-75
2022/11/13 07:01:21;;;;;;;;;;;4.80;99.90;;;;;;4953590;29;19942;-77
2022/11/13 07:04:06;;;;;;;;;;;4.80;99.90;;;;;;4953915;28;19929;-76
2022/11/13 07:06:54;;;;;;;;;;;5.20;99.90;;;;;;4954455;29;20017;-75
2022/11/13 07:09:39;;;;;;;;;;;5.60;99.90;;;;;;4952957;29;20052;-76
2022/11/13 07:12:25;;;;;;;;;;;5.80;99.90;;;;;;4952563;29;20050;-74
2022/11/13 07:15:11;;;;;;;;;;;6.20;99.90;;;;;;4952553;28;19933;-73
2022/11/13 07:18:00;;;;;;;;;;;6.30;99.90;;;;;;4973197;29;19930;-75
2022/11/13 07:20:45;;;;;;;;;;;6.40;99.90;;;;;;4952971;29;20306;-77
2022/11/13 07:23:32;;;;;;;;;;;6.50;99.90;;;;;;4951595;28;19933;-76
2022/11/13 07:26:18;;;;;;;;;;;6.60;99.90;;;;;;4952484;29;19930;-77
2022/11/13 07:29:04;;;;;;;;;;;6.90;99.90;;;;;;4952063;29;19933;-76
2022/11/13 07:31:50;;;;;;;;;;;6.80;99.90;;;;;;4961450;29;20007;-77
2022/11/13 07:34:35;;;;;;;;;;;6.70;99.90;;;;;;4962544;28;19928;-77
2022/11/13 07:37:21;;;;;;;;;;;6.70;99.90;;;;;;4951673;29;20404;-77
2022/11/13 07:40:09;;;;;;;;;;;6.70;99.90;;;;;;4952138;29;19933;-76
2022/11/13 07:42:58;;;;;;;;;;;6.90;99.90;;;;;;4953182;29;19938;-77
2022/11/13 07:45:44;;;;;;;;;;;6.90;99.90;;;;;;4954438;29;19949;-74
2022/11/13 07:48:30;;;;;;;;;;;7.00;99.90;;;;;;4953290;29;19946;-74
2022/11/13 07:51:15;;;;;;;;;;;7.10;99.90;;;;;;4952611;29;20024;-74
2022/11/13 07:54:01;;;;;;;;;;;7.20;99.90;;;;;;4954719;28;19928;-74
2022/11/13 07:56:48;;;;;;;;;;;7.30;99.90;;;;;;4953922;29;19960;-74
2022/11/13 07:59:34;;;;;;;;;;;7.40;99.90;;;;;;4954505;29;19933;-75
2022/11/13 08:02:19;;;;;;;;;;;7.40;99.90;;;;;;4953674;29;19945;-73
2022/11/13 08:05:05;;;;;;;;;;;7.40;99.90;;;;;;4952254;28;19930;-74
2022/11/13 08:07:52;;;;;;;;;;;7.40;99.90;;;;;;4957478;29;19929;-74
2022/11/13 08:10:37;;;;;;;;;;;7.40;99.90;;;;;;4956188;29;20024;-73
2022/11/13 08:13:24;;;;;;;;;;;7.50;99.90;;;;;;4954958;28;19989;-73
2022/11/13 08:16:10;;;;;;;;;;;7.70;99.90;;;;;;4956278;29;19945;-74
2022/11/13 08:18:55;;;;;;;;;;;7.80;99.90;;;;;;4956053;29;20009;-74
2022/11/13 08:21:41;;;;;;;;;;;8.00;99.90;;;;;;4955705;29;19929;-74
2022/11/13 08:24:27;;;;;;;;;;;8.20;99.90;;;;;;4956322;28;19930;-72
2022/11/13 08:27:12;;;;;;;;;;;8.30;99.90;;;;;;4956005;29;20069;-72
2022/11/13 08:29:59;;;;;;;;;;;8.30;99.90;;;;;;4956067;29;20490;-74
2022/11/13 08:32:45;;;;;;;;;;;8.40;99.90;;;;;;4954385;29;20539;-73
2022/11/13 08:35:30;;;;;;;;;;;8.30;99.90;;;;;;4954573;29;19962;-74
2022/11/13 08:38:16;;;;;;;;;;;8.40;99.90;;;;;;4955584;29;20404;-75
2022/11/13 08:41:04;;;;;;;;;;;8.40;99.90;;;;;;4955239;29;19929;-76
2022/11/13 08:43:49;;;;;;;;;;;8.20;99.90;;;;;;4954439;28;20412;-76
2022/11/13 08:46:36;;;;;;;;;;;8.00;99.90;;;;;;4955053;29;19969;-76
2022/11/13 08:49:22;;;;;;;;;;;8.10;99.90;;;;;;4956075;29;20215;-75
2022/11/13 08:52:08;;;;;;;;;;;8.20;99.90;;;;;;4954822;29;20034;-75
2022/11/13 08:54:53;;;;;;;;;;;8.40;99.90;;;;;;4955455;28;20017;-76
2022/11/13 08:57:40;;;;;;;;;;;8.50;99.90;;;;;;4954855;29;20386;-76
2022/11/13 09:00:25;;;;;;;;;;;8.70;99.90;;;;;;4955380;29;20052;-78
2022/11/13 09:03:12;;;;;;;;;;;8.80;99.90;;;;;;4955354;28;20190;-76
2022/11/13 09:05:58;;;;;;;;;;;8.80;99.90;;;;;;4954999;29;20511;-76
2022/11/13 09:08:43;;;;;;;;;;;9.00;99.90;;;;;;4955531;29;20385;-78
2022/11/13 09:11:29;;;;;;;;;;;9.10;99.90;;;;;;4954312;29;20102;-78
2022/11/13 09:14:14;;;;;;;;;;;9.20;99.90;;;;;;4955418;28;20020;-77
2022/11/13 09:17:00;;;;;;;;;;;9.20;99.90;;;;;;4954083;28;20013;-76
2022/11/13 09:19:48;;;;;;;;;;;9.20;99.90;;;;;;4954945;29;20390;-77
2022/11/13 09:22:34;;;;;;;;;;;9.10;99.90;;;;;;4953683;29;20036;-75
2022/11/13 09:25:19;;;;;;;;;;;9.10;99.90;;;;;;4954136;29;20498;-76
2022/11/13 09:28:06;;;;;;;;;;;9.30;99.90;;;;;;4954856;29;19928;-76
2022/11/13 09:30:52;;;;;;;;;;;9.40;99.90;;;;;;4955900;29;19933;-77
2022/11/13 09:33:37;;;;;;;;;;;9.60;99.90;;;;;;4954093;28;19968;-77
2022/11/13 09:36:25;;;;;;;;;;;9.70;99.90;;;;;;4954350;29;19933;-76
2022/11/13 09:39:10;;;;;;;;;;;9.70;99.90;;;;;;4954884;29;19984;-75
2022/11/13 09:41:57;;;;;;;;;;;9.70;99.90;;;;;;4953391;29;20275;-78
2022/11/13 09:44:45;;;;;;;;;;;9.80;99.90;;;;;;4955382;28;19930;-75
2022/11/13 09:47:33;;;;;;;;;;;9.90;99.90;;;;;;4957890;29;20525;-77
2022/11/13 09:50:21;;;;;;;;;;;9.90;99.90;;;;;;4958202;29;19933;-76
2022/11/13 09:53:09;;;;;;;;;;;10.10;99.90;;;;;;4959586;28;19929;-77
2022/11/13 09:55:57;;;;;;;;;;;10.20;99.90;;;;;;4956464;29;19961;-77
2022/11/13 09:58:46;;;;;;;;;;;10.30;99.90;;;;;;4953957;29;19933;-75
2022/11/13 10:01:41;;;;;;;;;;;10.40;99.90;;;;;;4955790;29;19996;-76
2022/11/13 10:04:42;;;;;;;;;;;10.50;99.90;;;;;;4955100;28;20278;-76
2022/11/13 10:07:33;;;;;;;;;;;10.60;99.90;;;;;;4966963;29;19929;-78
2022/11/13 10:10:28;;;;;;;;;;;10.70;99.90;;;;;;4962404;29;20283;-75
2022/11/13 10:13:18;;;;;;;;;;;10.80;99.90;;;;;;4957635;28;19933;-76
2022/11/13 10:16:06;;;;;;;;;;;10.80;99.90;;;;;;4956099;29;19945;-75
2022/11/13 10:18:55;;;;;;;;;;;10.90;99.90;;;;;;4954920;29;19929;-75
2022/11/13 10:21:44;;;;;;;;;;;11.00;99.90;;;;;;4953525;29;19929;-74
2022/11/13 10:24:42;;;;;;;;;;;11.10;99.90;;;;;;4954679;28;19930;-77
2022/11/13 10:27:30;;;;;;;;;;;11.20;99.90;;;;;;4954682;29;20084;-77
2022/11/13 10:30:17;;;;;;;;;;;11.30;99.90;;;;;;4955716;28;19929;-77
2022/11/13 10:33:04;;;;;;;;;;;11.40;99.90;;;;;;4961916;28;20002;-75
2022/11/13 10:35:53;;;;;;;;;;;11.60;99.90;;;;;;4970443;29;19997;-78
2022/11/13 10:38:41;;;;;;;;;;;11.70;99.90;;;;;;4955803;29;20028;-77
2022/11/13 10:41:27;;;;;;;;;;;11.70;99.90;;;;;;4934555;29;20021;-78
2022/11/13 10:44:25;;;;;;;;;;;11.80;99.90;;;;;;4935664;29;20005;-78
2022/11/13 10:47:15;;;;;;;;;;;11.90;99.90;;;;;;4935257;29;19930;-77
2022/11/13 10:50:08;;;;;;;;;;;12.00;99.90;;;;;;4934454;29;20017;-79
2022/11/13 10:52:56;;;;;;;;;;;12.30;99.90;;;;;;4934555;29;20543;-75
2022/11/13 10:55:42;;;;;;;;;;;12.40;99.90;;;;;;4936340;29;20017;-77
2022/11/13 10:58:28;;;;;;;;;;;12.60;99.90;;;;;;4935782;29;20261;-78
2022/11/13 11:01:16;;;;;;;;;;;12.70;95.20;;;;;;4934257;29;19929;-75
2022/11/13 11:04:03;;;;;;;;;;;12.90;1.00;;;;;;4941155;29;19946;-76
2022/11/13 11:06:49;;;;;;;;;;;13.00;99.90;;;;;;4948698;29;19949;-76
2022/11/13 11:09:38;;;;;;;;;;;13.00;1.00;;;;;;4938235;29;19954;-76
2022/11/13 11:12:25;;;;;;;;;;;13.10;52.20;;;;;;4933283;29;20098;-79
2022/11/13 11:15:18;;;;;;;;;;;13.20;99.90;;;;;;4934703;29;20428;-79
2022/11/13 11:18:06;;;;;;;;;;;13.20;1.00;;;;;;4934398;29;19929;-76
2022/11/13 11:20:53;;;;;;;;;;;13.30;99.90;;;;;;4934953;29;20385;-78
2022/11/13 11:23:41;;;;;;;;;;;13.30;1.00;;;;;;4932268;29;20485;-78
2022/11/13 11:26:31;;;;;;;;;;;13.30;1.00;;;;;;4933942;29;20298;-77
2022/11/13 11:29:19;;;;;;;;;;;13.40;99.90;;;;;;4936350;29;19994;-76
2022/11/13 11:32:07;;;;;;;;;;;13.50;14.00;;;;;;4934720;29;20010;-77
2022/11/13 11:34:56;;;;;;;;;;;13.60;1.00;;;;;;4935854;29;20066;-77
2022/11/13 11:37:48;;;;;;;;;;;13.80;82.30;;;;;;4934520;29;19929;-78
2022/11/13 11:40:37;;;;;;;;;;;13.80;1.00;;;;;;4959232;23;19933;-75
2022/11/13 11:43:27;;;;;;;;;;;13.90;99.90;;;;;;4956918;28;20266;-77
2022/11/13 11:46:13;;;;;;;;;;;13.90;1.00;;;;;;4952171;29;19929;-76
2022/11/13 11:49:00;;;;;;;;;;;14.00;1.00;;;;;;4952089;29;19929;-77
2022/11/13 11:51:51;;;;;;;;;;;14.00;99.90;;;;;;4951278;29;20073;-75
2022/11/13 11:54:40;;;;;;;;;;;14.10;1.00;;;;;;4951530;29;20294;-77
2022/11/13 11:57:34;;;;;;;;;;;14.10;1.00;;;;;;4951503;29;19929;-76
2022/11/13 12:00:21;;;;;;;;;;;14.10;1.00;;;;;;4951196;29;20074;-76
2022/11/13 12:03:25;;;;;;;;;;;14.30;1.00;;;;;;4951382;28;20306;-77
2022/11/13 12:06:15;;;;;;;;;;;14.30;1.00;;;;;;4951829;29;19934;-76
2022/11/13 12:09:06;;;;;;;;;;;14.30;99.90;;;;;;4950934;29;19972;-75
2022/11/13 12:11:56;;;;;;;;;;;14.40;99.90;;;;;;4950707;29;19959;-75
2022/11/13 12:14:47;;;;;;;;;;;14.40;1.00;;;;;;4951260;29;20523;-75
2022/11/13 12:17:41;;;;;;;;;;;14.50;1.00;;;;;;4951543;29;20429;-75
2022/11/13 12:20:32;;;;;;;;;;;14.50;1.00;;;;;;4951652;29;19929;-77
2022/11/13 12:23:26;;;;;;;;;;;14.60;1.00;;;;;;4958895;28;19929;-76
2022/11/13 12:26:16;;;;;;;;;;;14.60;1.00;;;;;;4961724;29;19998;-75
2022/11/13 12:29:05;;;;;;;;;;;14.60;1.00;;;;;;4957344;29;19933;-76
2022/11/13 12:31:55;;;;;;;;;;;14.80;1.00;;;;;;4950235;28;20016;-77
2022/11/13 12:34:43;;;;;;;;;;;14.80;1.00;;;;;;4950725;29;20436;-74
2022/11/13 12:37:33;;;;;;;;;;;14.80;1.00;;;;;;4951176;29;20016;-77
2022/11/13 12:40:23;;;;;;;;;;;14.80;1.00;;;;;;4950594;29;20010;-76
2022/11/13 12:43:26;;;;;;;;;;;14.80;1.00;;;;;;4951329;28;19930;-75
2022/11/13 12:46:12;;;;;;;;;;;14.80;1.00;;;;;;4952000;29;19946;-74
2022/11/13 12:48:59;;;;;;;;;;;14.80;1.00;;;;;;4951349;29;19929;-74
2022/11/13 12:51:53;;;;;;;;;;;14.90;1.00;;;;;;4951461;28;19934;-77
2022/11/13 12:54:38;;;;;;;;;;;14.90;1.00;;;;;;4954404;29;20244;-76
2022/11/13 12:57:25;;;;;;;;;;;15.10;1.00;;;;;;4954797;29;19949;-76
2022/11/13 13:00:21;;;;;;;;;;;15.20;1.00;;;;;;4954771;29;19933;-76
2022/11/13 13:03:20;;;;;;;;;;;15.30;99.90;;;;;;4952933;28;20009;-75
2022/11/13 13:06:16;;;;;;;;;;;15.50;99.90;;;;;;4954450;29;20381;-75
2022/11/13 13:09:19;;;;;;;;;;;15.70;99.90;;;;;;4954485;29;20154;-76
2022/11/13 13:12:11;;;;;;;;;;;15.90;99.90;;;;;;4953463;28;19998;-75
2022/11/13 13:15:04;;;;;;;;;;;16.10;99.90;;;;;;4954101;29;19933;-76
2022/11/13 13:18:01;;;;;;;;;;;16.00;99.90;;;;;;4954305;29;20335;-77
2022/11/13 13:20:58;;;;;;;;;;;15.90;99.90;;;;;;4954096;29;19929;-77
2022/11/13 13:23:45;;;;;;;;;;;16.00;99.90;;;;;;4954353;28;20385;-76
2022/11/13 13:26:31;;;;;;;;;;;15.90;99.90;;;;;;4953927;29;20401;-75
2022/11/13 13:29:17;;;;;;;;;;;15.90;99.90;;;;;;4954305;29;20023;-76
2022/11/13 13:32:06;;;;;;;;;;;15.70;99.90;;;;;;4953436;28;19981;-77
2022/11/13 13:34:57;;;;;;;;;;;15.60;99.90;;;;;;4954574;29;20105;-77
2022/11/13 13:37:48;;;;;;;;;;;15.40;99.90;;;;;;4954553;29;19998;-77
2022/11/13 13:40:38;;;;;;;;;;;15.30;99.90;;;;;;4953792;29;20006;-74
2022/11/13 13:43:34;;;;;;;;;;;15.00;99.90;;;;;;4953620;28;19929;-75
2022/11/13 13:46:20;;;;;;;;;;;14.90;1.00;;;;;;4953819;29;19932;-77
2022/11/13 13:49:08;;;;;;;;;;;14.80;1.00;;;;;;4953181;29;19932;-74
2022/11/13 13:51:57;;;;;;;;;;;14.80;1.00;;;;;;4953147;28;20041;-74
2022/11/13 13:54:43;;;;;;;;;;;14.70;1.00;;;;;;4953887;29;19933;-77
2022/11/13 13:57:30;;;;;;;;;;;14.60;99.90;;;;;;4954297;29;19946;-74
2022/11/13 14:00:17;;;;;;;;;;;14.60;99.90;;;;;;4953280;29;20381;-74
2022/11/13 14:03:02;;;;;;;;;;;14.50;1.00;;;;;;4953389;28;20020;-75
2022/11/13 14:05:48;;;;;;;;;;;14.40;89.10;;;;;;4953945;29;19929;-75
2022/11/13 14:08:35;;;;;;;;;;;14.30;99.90;;;;;;4953697;29;19945;-76
2022/11/13 14:11:25;;;;;;;;;;;14.20;1.00;;;;;;4953684;29;20044;-77
2022/11/13 14:14:17;;;;;;;;;;;14.10;1.00;;;;;;4953774;29;19933;-78
2022/11/13 14:17:03;;;;;;;;;;;14.10;1.00;;;;;;4953878;29;19933;-76
2022/11/13 14:19:52;;;;;;;;;;;14.10;52.80;;;;;;4953844;29;19930;-77
2022/11/13 14:22:39;;;;;;;;;;;14.00;99.90;;;;;;4951631;28;20381;-76
2022/11/13 14:25:27;;;;;;;;;;;14.00;99.90;;;;;;4954824;29;19945;-76
2022/11/13 14:28:15;;;;;;;;;;;14.00;1.00;;;;;;4953902;29;19929;-76
2022/11/13 14:31:02;;;;;;;;;;;13.90;1.00;;;;;;4953428;29;19929;-76
2022/11/13 14:33:48;;;;;;;;;;;13.80;1.00;;;;;;4956298;29;19990;-75
2022/11/13 14:36:36;;;;;;;;;;;13.90;1.00;;;;;;4953061;29;19964;-77
2022/11/13 14:39:27;;;;;;;;;;;13.90;1.00;;;;;;4952991;29;20005;-75
2022/11/13 14:42:18;;;;;;;;;;;13.90;99.90;;;;;;4952503;28;20410;-77
2022/11/13 14:45:14;;;;;;;;;;;13.70;1.00;;;;;;4952817;29;20235;-77
2022/11/13 14:48:01;;;;;;;;;;;13.60;99.90;;;;;;4952018;29;20385;-77
2022/11/13 14:50:51;;;;;;;;;;;13.60;1.00;;;;;;4953163;29;19934;-77
2022/11/13 14:53:37;;;;;;;;;;;13.50;1.00;;;;;;4951730;28;19936;-76
2022/11/13 14:56:31;;;;;;;;;;;13.50;99.90;;;;;;4953143;29;19937;-76
2022/11/13 14:59:25;;;;;;;;;;;13.40;99.90;;;;;;4952502;29;19949;-75
2022/11/13 15:02:12;;;;;;;;;;;13.40;99.90;;;;;;4952157;28;20404;-77
2022/11/13 15:04:57;;;;;;;;;;;13.40;99.90;;;;;;4952414;29;19942;-77
2022/11/13 15:07:44;;;;;;;;;;;13.40;99.90;;;;;;4952687;29;20377;-76
2022/11/13 15:10:30;;;;;;;;;;;13.30;1.00;;;;;;4952335;29;20297;-79
2022/11/13 15:13:17;;;;;;;;;;;13.30;99.90;;;;;;4951637;28;19961;-77
2022/11/13 15:16:04;;;;;;;;;;;13.40;99.90;;;;;;4951425;28;19928;-76
2022/11/13 15:18:52;;;;;;;;;;;13.40;99.90;;;;;;4955175;29;19929;-76
2022/11/13 15:21:38;;;;;;;;;;;13.30;99.90;;;;;;4955990;28;20011;-77
2022/11/13 15:24:24;;;;;;;;;;;13.30;1.00;;;;;;4953841;29;19931;-75
2022/11/13 15:27:12;;;;;;;;;;;13.20;1.00;;;;;;4960757;29;19933;-77
2022/11/13 15:29:58;;;;;;;;;;;13.30;99.90;;;;;;4951859;29;20025;-77
2022/11/13 15:32:45;;;;;;;;;;;13.20;99.90;;;;;;4951817;28;19930;-76
2022/11/13 15:35:31;;;;;;;;;;;13.20;99.90;;;;;;4952700;29;19929;-76
2022/11/13 15:38:17;;;;;;;;;;;13.20;99.90;;;;;;4952295;29;19936;-76
2022/11/13 15:41:07;;;;;;;;;;;13.20;99.90;;;;;;4951845;29;20065;-77
2022/11/13 15:43:54;;;;;;;;;;;13.30;99.90;;;;;;4952672;29;20430;-76
2022/11/13 15:46:39;;;;;;;;;;;13.30;99.90;;;;;;4952596;29;19932;-75
2022/11/13 15:49:27;;;;;;;;;;;13.30;99.90;;;;;;4951343;29;19982;-76
2022/11/13 15:52:12;;;;;;;;;;;13.30;99.90;;;;;;4951860;28;20397;-75
2022/11/13 15:54:58;;;;;;;;;;;13.30;99.90;;;;;;4951324;29;19949;-75
2022/11/13 15:57:44;;;;;;;;;;;13.20;99.90;;;;;;4952292;29;19930;-75
2022/11/13 16:00:29;;;;;;;;;;;13.20;99.90;;;;;;4952312;29;19930;-77
2022/11/13 16:03:18;;;;;;;;;;;13.10;99.90;;;;;;4951977;28;20066;-76
2022/11/13 16:06:05;;;;;;;;;;;13.00;99.90;;;;;;4952589;28;20278;-78
2022/11/13 16:08:50;;;;;;;;;;;12.90;99.90;;;;;;4952055;28;20390;-77
2022/11/13 16:11:36;;;;;;;;;;;12.80;99.90;;;;;;4951737;28;19933;-78
2022/11/13 16:14:22;;;;;;;;;;;12.70;99.90;;;;;;4951929;29;19933;-77
2022/11/13 16:17:11;;;;;;;;;;;12.70;99.90;;;;;;4951227;29;19929;-77
2022/11/13 16:19:57;;;;;;;;;;;12.70;99.90;;;;;;4951687;29;20077;-79
2022/11/13 16:22:44;;;;;;;;;;;12.60;99.90;;;;;;4952244;28;19981;-79
2022/11/13 16:25:31;;;;;;;;;;;12.50;99.90;;;;;;4953861;28;19937;-77